Archival Weather

Norman Y Mineta San Jose Intl

San Jose, California (KSJC)

Report from: Wednesday, January 31, 2024 9:11 PM PST
Current time: Monday, June 24, 2024 2:21 AM PDT

Current weather – Weather history – Daily summaries
Weather forecast

Present weatherHeavy rain
Temperature13.3°C (55.9°F)
Dew point10.6°C (51.1°F)
Winds 18 kts (9.3 m/s, 20.7 mph) South-Southeast (160°)
Visibility2.5 mi. (4 km)
Clouds Few clouds 1,400 ft. (427 m)
Ceiling: Broken clouds 3,700 ft. (1,128 m)
Overcast 5,000 ft. (1,524 m)
Altimeter29.64 in.Hg (1004 mB)
Precipitiation0.11 in. (3 mm)
Relative humidity84 %
Density altitude302 ft. (92 m)
Remarks Corrected report
Automated weather observing station with precipitation discriminator
Flight conditions Instrument Meteorological Conditions
Raw dataKSJC 010511Z COR 16018KT 2 1/2SM +RA FEW014 BKN037 OVC050 13/11 A2964 RMK AO2 WSHFT 0457 P0011 T01330106
An error has occurred. This application may no longer respond until reloaded. Reload 🗙